Aérodrome :
LOGIN :

S'inscrire | Disclaimer

   EN    FR    IT 

 










Légende :    VFR   VFR Marginal   IFR   IFR Intensif   IFR Très Intensif
Visi : 
Plafond : 
>= 8 km
>= 3000ft
5 à 8 km
1000 à 3000 ft
1500m à 5 km
500 à 1000 ft
800 à 1500m
200 à 500 ft
< 800m
< 200 ft
Symboles :   Orages  Brouillard  Fortes neiges  Fortes précipitations  Vent > 20 kt
SIGMETs :   Divers  Orages  Givrage  Turbulence  Onde Orograph.  Cendres Volcan.






- Altitude de l'aérodrome : 17 ft
- Code IATA : CPH


EKCH - København - Kastrup (Copenhagen)

DERNIER METAR :
  • 070850Z AUTO 17013KT 9999 BKN095/// 15/11 Q1005 NOSIG

METARs EXPIRÉS :
  • 070820Z AUTO 17012KT 9999 BKN097/// 14/10 Q1005 NOSIG
  • 070750Z AUTO 18012KT 9999 NCD 14/10 Q1005 NOSIG
  • 070720Z AUTO 18014KT 9999 NCD 14/10 Q1005 NOSIG
  • 070650Z AUTO 17012KT 9999 NCD 14/10 Q1004 NOSIG
  • 070620Z AUTO 17011KT 9999 NCD 14/10 Q1004 NOSIG

TAF TAF EKCH
Valide du 07 à 06h jusqu'au 08 à 06h UTC


070522Z 0706/0806 16012KT 9999 SCT030
TEMPO 0712/0720 FEW030CB
BECMG 0718/0721 22006KT



MET'MAP, la Météo Aéronautique d'un coup d'oeil ! - Copyright ORBIFLY Décembre 2007 - Disclaimer

ORBIFLY MET'MAP TEAM :

Programmation & Développement : Alexandra Zaïnal
Sur une idée originale de : Baudouin d'Aumeries
Assistance à la programmation : Marc-Olivier Méhu
Soutien technique & logistique : Manuel Goepfert

Contact : metmap@orbifly.com




SOURCES & CREDITS :

   NOAA